Time;durP1;ratioP1;P1;durP2;ratioP2;P2;SDS_P1;SDS_P2;PMS_P1;PMS_P2;Temp;Humidity;BMP_temperature;BMP_pressure;BME280_temperature;BME280_humidity;BME280_pressure;Samples;Min_cycle;Max_cycle;Signal;HPM_P1;HPM_P2
2022/07/19 00:00:19;;;;;;;4.85;2.42;;;14.80;99.90;;;15.38;100.00;99492.19;5022120;28;120314;-75
2022/07/19 00:02:48;;;;;;;6.57;2.67;;;14.80;99.90;;;15.38;100.00;99492.19;5020789;28;130626;-75
2022/07/19 00:05:19;;;;;;;4.80;2.63;;;14.80;99.90;;;15.41;100.00;99491.50;5006016;28;129753;-73
2022/07/19 00:07:48;;;;;;;4.97;2.53;;;14.80;99.90;;;15.50;100.00;99504.25;5021455;28;120160;-77
2022/07/19 00:10:19;;;;;;;4.20;2.50;;;14.80;99.90;;;15.53;100.00;99498.09;5021921;28;119000;-75
2022/07/19 00:12:48;;;;;;;4.75;2.50;;;14.80;99.90;;;15.54;100.00;99505.16;5021415;28;129727;-74
2022/07/19 00:15:17;;;;;;;7.63;2.55;;;14.80;99.90;;;15.51;100.00;99490.22;5021446;28;129991;-76
2022/07/19 00:17:49;;;;;;;6.88;2.13;;;14.80;99.90;;;15.48;100.00;99498.31;5021813;28;119382;-74
2022/07/19 00:20:22;;;;;;;5.28;2.85;;;14.80;99.90;;;15.44;100.00;99492.72;5022147;28;119741;-75
2022/07/19 00:22:51;;;;;;;4.60;2.30;;;14.70;99.90;;;15.40;100.00;99484.44;5003326;28;130047;-75
2022/07/19 00:25:19;;;;;;;3.63;1.98;;;14.70;99.90;;;15.38;100.00;99497.66;5006757;28;128918;-75
2022/07/19 00:27:48;;;;;;;3.95;2.10;;;14.70;99.90;;;15.34;100.00;99491.28;5020150;28;122103;-76
2022/07/19 00:30:16;;;;;;;6.13;2.60;;;14.70;99.90;;;15.37;100.00;99495.25;5021680;28;122393;-75
2022/07/19 00:32:45;;;;;;;3.63;2.20;;;14.70;99.90;;;15.44;100.00;99500.94;5006401;28;128948;-76
2022/07/19 00:35:13;;;;;;;5.13;2.10;;;14.70;99.90;;;15.51;100.00;99494.91;5023045;28;129607;-75
2022/07/19 00:37:43;;;;;;;5.47;2.20;;;14.70;99.90;;;15.59;100.00;99502.19;5021260;28;119483;-74
2022/07/19 00:40:13;;;;;;;4.07;2.20;;;14.80;99.90;;;15.61;100.00;99505.34;5006573;28;118341;-75
2022/07/19 00:42:42;;;;;;;4.90;2.53;;;14.80;99.90;;;15.59;100.00;99502.97;5005967;28;129055;-75
2022/07/19 00:45:11;;;;;;;3.97;2.40;;;14.80;99.90;;;15.62;100.00;99496.03;5021269;27;129327;-74
2022/07/19 00:47:40;;;;;;;6.05;2.60;;;14.80;99.90;;;15.61;100.00;99506.16;5003034;28;119857;-73
2022/07/19 00:50:10;;;;;;;4.57;2.40;;;14.80;99.90;;;15.56;100.00;99498.19;5021286;28;119583;-72
2022/07/19 00:52:43;;;;;;;7.20;3.13;;;14.70;99.90;;;15.53;100.00;99504.34;5001838;28;130206;-72
2022/07/19 00:55:12;;;;;;;4.95;2.42;;;14.80;99.90;;;15.49;100.00;99497.97;5020989;28;130595;-74
2022/07/19 00:57:41;;;;;;;5.40;2.63;;;14.70;99.90;;;15.49;100.00;99508.09;5031875;27;119621;-73
2022/07/19 01:00:11;;;;;;;4.72;2.50;;;14.80;99.90;;;15.45;100.00;99506.06;5041379;27;119317;-74
2022/07/19 01:02:41;;;;;;;4.50;2.38;;;14.80;99.90;;;15.43;100.00;99508.34;5022759;27;129707;-72
2022/07/19 01:05:11;;;;;;;5.72;2.50;;;14.80;99.90;;;15.40;100.00;99506.31;5040512;27;129353;-74
2022/07/19 01:07:43;;;;;;;3.42;2.15;;;14.80;99.90;;;15.37;100.00;99512.47;5041314;27;119784;-73
2022/07/19 01:10:14;;;;;;;5.43;2.28;;;14.80;99.90;;;15.37;100.00;99517.94;5041591;27;119682;-74
2022/07/19 01:12:44;;;;;;;3.92;2.08;;;14.80;99.90;;;15.35;100.00;99514.75;5040772;27;130625;-74
2022/07/19 01:15:18;;;;;;;5.15;2.92;;;14.80;99.90;;;15.34;100.00;99515.09;5040325;27;129984;-72
2022/07/19 01:17:48;;;;;;;5.75;2.47;;;14.80;99.90;;;15.33;100.00;99517.00;5039602;27;122422;-74
2022/07/19 01:20:18;;;;;;;5.07;2.58;;;14.70;99.90;;;15.36;100.00;99516.31;5040965;27;122273;-73
2022/07/19 01:22:49;;;;;;;6.70;2.88;;;14.70;99.90;;;15.30;100.00;99519.63;5025926;27;129378;-75
2022/07/19 01:25:18;;;;;;;5.78;2.90;;;14.70;99.90;;;15.24;100.00;99508.16;5026621;27;129146;-72
2022/07/19 01:27:49;;;;;;;5.38;2.80;;;14.70;99.90;;;15.25;100.00;99509.72;5041665;27;119705;-74
2022/07/19 01:30:22;;;;;;;5.90;2.78;;;14.70;99.90;;;15.26;100.00;99508.59;5041146;27;119263;-76
2022/07/19 01:32:52;;;;;;;6.35;2.78;;;14.70;99.90;;;15.28;100.00;99509.03;5040544;27;129535;-75
2022/07/19 01:35:21;;;;;;;5.70;2.80;;;14.80;99.90;;;15.34;100.00;99509.63;5025885;27;128634;-76
2022/07/19 01:37:52;;;;;;;4.75;2.70;;;14.70;99.90;;;15.36;100.00;99505.38;5040885;27;120655;-73
2022/07/19 01:40:21;;;;;;;6.22;2.90;;;14.80;99.90;;;15.36;100.00;99505.38;5008495;27;118829;-74
2022/07/19 01:42:50;;;;;;;4.50;2.60;;;14.80;99.90;;;15.36;100.00;99507.34;5039126;27;129602;-75
2022/07/19 01:45:20;;;;;;;3.95;2.35;;;14.80;99.90;;;15.41;100.00;99501.63;5025271;27;128580;-74
2022/07/19 01:47:49;;;;;;;6.97;2.95;;;14.80;99.90;;;15.45;100.00;99508.78;5040618;27;119605;-73
2022/07/19 01:50:19;;;;;;;6.47;2.67;;;14.80;99.90;;;15.40;100.00;99511.78;5040361;27;119920;-74
2022/07/19 01:52:48;;;;;;;5.55;2.63;;;14.80;99.90;;;15.37;100.00;99507.00;5040444;27;130391;-74
2022/07/19 01:55:19;;;;;;;5.07;2.50;;;14.80;99.90;;;15.37;100.00;99511.66;5025361;27;128883;-73
2022/07/19 01:57:48;;;;;;;5.60;2.40;;;14.80;99.90;;;15.38;100.00;99508.59;5041120;27;120910;-74
2022/07/19 02:00:18;;;;;;;4.95;2.30;;;14.80;99.90;;;15.38;100.00;99514.06;5040787;27;119648;-76
2022/07/19 02:02:47;;;;;;;5.45;2.45;;;14.80;99.90;;;15.41;100.00;99513.38;5040135;27;129701;-74
2022/07/19 02:05:15;;;;;;;5.45;2.50;;;14.70;99.90;;;15.34;100.00;99518.59;5024684;27;130131;-73
2022/07/19 02:07:44;;;;;;;4.63;2.45;;;14.70;99.90;;;15.32;100.00;99514.63;5038478;27;122308;-75
2022/07/19 02:10:12;;;;;;;5.63;2.47;;;14.70;99.90;;;15.31;100.00;99518.50;5040122;27;121848;-76
2022/07/19 02:12:42;;;;;;;5.03;2.53;;;14.70;99.90;;;15.32;100.00;99515.44;5039580;27;130734;-75
2022/07/19 02:15:11;;;;;;;3.38;2.17;;;14.80;99.90;;;15.29;100.00;99521.59;5039602;27;129496;-73
2022/07/19 02:17:40;;;;;;;5.32;2.80;;;14.70;99.90;;;15.30;100.00;99516.91;5039817;27;119803;-73
2022/07/19 02:20:10;;;;;;;5.22;2.33;;;14.70;99.90;;;15.31;100.00;99523.97;5024854;27;118969;-72
2022/07/19 02:22:38;;;;;;;5.43;2.60;;;14.80;99.90;;;15.33;100.00;99517.00;5023907;27;130276;-76
2022/07/19 02:25:08;;;;;;;4.22;2.33;;;14.80;99.90;;;15.37;100.00;99509.72;5039937;27;129429;-73
2022/07/19 02:27:37;;;;;;;4.15;2.15;;;14.80;99.90;;;15.38;100.00;99508.59;5040155;27;119755;-75
2022/07/19 02:30:09;;;;;;;3.80;2.45;;;14.80;99.90;;;15.44;100.00;99509.97;5040299;27;118946;-75
2022/07/19 02:32:38;;;;;;;4.32;2.22;;;14.80;99.90;;;15.49;100.00;99503.47;5038374;27;129816;-73
2022/07/19 02:35:10;;;;;;;4.53;2.30;;;14.80;99.90;;;15.60;100.00;99514.72;5039406;27;129812;-75
2022/07/19 02:37:39;;;;;;;8.55;3.05;;;14.90;99.90;;;15.69;100.00;99512.66;5039675;27;120180;-77
2022/07/19 02:40:10;;;;;;;6.05;2.58;;;14.90;99.90;;;15.72;100.00;99511.97;5041740;27;119026;-75
2022/07/19 02:42:39;;;;;;;3.40;2.17;;;14.90;99.90;;;15.73;100.00;99515.50;5021274;27;130011;-74
2022/07/19 02:45:11;;;;;;;4.90;2.60;;;14.90;99.90;;;15.71;100.00;99515.03;5039447;27;130089;-75
2022/07/19 02:47:39;;;;;;;3.65;2.40;;;14.90;99.90;;;15.73;100.00;99513.53;5039402;27;120144;-74
2022/07/19 02:50:09;;;;;;;5.15;2.50;;;14.90;99.90;;;15.80;100.00;99513.78;5039926;27;119966;-74
2022/07/19 02:52:37;;;;;;;5.03;2.58;;;15.00;99.90;;;15.77;100.00;99517.22;5038782;27;130171;-73
2022/07/19 02:55:08;;;;;;;4.18;2.33;;;14.90;99.90;;;15.76;100.00;99515.59;5038843;27;129873;-75
2022/07/19 02:57:36;;;;;;;4.60;2.60;;;14.90;99.90;;;15.76;100.00;99518.31;5039085;27;121911;-73
2022/07/19 03:00:09;;;;;;;4.55;2.50;;;14.90;99.90;;;15.74;100.00;99519.81;5039496;27;121826;-74
2022/07/19 03:02:38;;;;;;;5.22;2.45;;;14.90;99.90;;;15.74;100.00;99515.13;5039070;27;130141;-75
2022/07/19 03:05:08;;;;;;;5.72;2.40;;;14.90;99.90;;;15.80;100.00;99523.94;5039332;27;129560;-75
2022/07/19 03:07:37;;;;;;;4.53;2.15;;;15.00;99.90;;;15.89;100.00;99518.31;5040237;27;119662;-74
2022/07/19 03:10:07;;;;;;;4.60;2.47;;;15.00;99.90;;;15.94;100.00;99523.53;5042904;27;119406;-75
2022/07/19 03:12:36;;;;;;;4.68;2.50;;;15.00;99.90;;;15.98;100.00;99521.72;5027673;27;129564;-75
2022/07/19 03:15:06;;;;;;;3.22;1.95;;;15.00;99.90;;;16.07;100.00;99516.09;5042932;27;130007;-75
2022/07/19 03:17:36;;;;;;;4.70;2.47;;;15.10;99.90;;;15.70;100.00;99525.16;5027779;27;118456;-76
2022/07/19 03:20:05;;;;;;;6.50;2.47;;;15.00;99.90;;;15.43;100.00;99516.56;5042921;27;119755;-78
2022/07/19 03:22:34;;;;;;;5.38;2.60;;;14.90;99.90;;;15.52;100.00;99519.19;5043663;27;129586;-74
2022/07/19 03:25:02;;;;;;;4.32;2.50;;;14.90;99.90;;;15.61;100.00;99527.25;5027211;27;128788;-77
2022/07/19 03:27:31;;;;;;;4.50;2.53;;;15.00;99.90;;;15.63;100.00;99524.97;5042148;27;119651;-76
2022/07/19 03:30:00;;;;;;;3.80;2.42;;;15.00;99.90;;;15.57;100.00;99520.88;5042084;27;120184;-76
2022/07/19 03:32:28;;;;;;;4.15;2.00;;;15.00;99.90;;;15.39;100.00;99521.09;5042361;27;130186;-77
2022/07/19 03:34:58;;;;;;;5.63;2.40;;;15.00;99.90;;;15.22;100.00;99529.53;5024085;27;129488;-75
2022/07/19 03:37:27;;;;;;;5.00;2.33;;;14.90;99.90;;;15.41;100.00;99523.50;5042837;27;119642;-75
2022/07/19 03:39:56;;;;;;;4.65;2.30;;;15.00;99.90;;;15.51;100.00;99522.25;5043125;27;119417;-76
2022/07/19 03:42:24;;;;;;;4.60;2.60;;;15.00;99.90;;;15.47;100.00;99522.13;5026927;27;130181;-74
2022/07/19 03:44:53;;;;;;;4.35;2.45;;;15.00;99.90;;;15.56;100.00;99524.75;5042013;27;129554;-75
2022/07/19 03:47:23;;;;;;;3.80;2.30;;;15.00;99.90;;;15.61;100.00;99532.72;5040955;27;122241;-74
2022/07/19 03:49:51;;;;;;;6.55;2.40;;;15.10;99.90;;;15.77;100.00;99530.91;5027271;27;120484;-73
2022/07/19 03:52:21;;;;;;;4.18;2.30;;;15.10;99.90;;;15.91;100.00;99535.19;5042395;27;130499;-75
2022/07/19 03:54:50;;;;;;;4.63;2.63;;;15.10;99.90;;;15.99;100.00;99537.78;5041935;27;130136;-75
2022/07/19 03:57:18;;;;;;;4.28;2.58;;;15.20;99.90;;;15.91;100.00;99532.44;5027560;27;119476;-75
2022/07/19 03:59:47;;;;;;;4.10;2.40;;;15.10;99.90;;;16.00;100.00;99538.56;5042190;27;119753;-75
2022/07/19 04:02:15;;;;;;;5.20;2.47;;;15.20;99.90;;;16.20;100.00;99552.44;5041621;27;130080;-75
2022/07/19 04:04:44;;;;;;;4.32;2.28;;;15.30;99.90;;;16.30;100.00;99536.31;5042592;27;129692;-75
2022/07/19 04:07:13;;;;;;;5.25;2.63;;;15.30;99.90;;;16.38;100.00;99536.50;5042126;27;119546;-75
2022/07/19 04:09:42;;;;;;;4.57;2.40;;;15.20;99.90;;;16.43;100.00;99534.31;5026887;27;118397;-76
2022/07/19 04:12:11;;;;;;;4.05;2.20;;;15.20;99.90;;;16.57;100.00;99538.59;5025651;27;128455;-75
2022/07/19 04:14:40;;;;;;;5.97;2.08;;;15.40;99.90;;;16.70;100.00;99531.88;5041848;27;129246;-75
2022/07/19 04:17:08;;;;;;;4.03;2.30;;;15.40;99.90;;;16.80;100.00;99531.38;5026873;27;119386;-75
2022/07/19 04:19:37;;;;;;;4.15;2.08;;;15.50;99.90;;;17.01;100.00;99536.59;5023113;27;119439;-74
2022/07/19 04:22:05;;;;;;;3.92;1.98;;;15.80;99.90;;;17.10;99.96;99533.69;5041598;27;130644;-75
2022/07/19 04:24:34;;;;;;;3.60;2.08;;;15.90;99.90;;;17.36;98.68;99535.09;5041489;27;129523;-76
2022/07/19 04:27:05;;;;;;;5.68;2.30;;;16.10;99.90;;;17.57;96.21;99530.09;5041263;27;119504;-76
2022/07/19 04:29:33;;;;;;;3.97;2.30;;;16.20;99.90;;;17.53;95.35;99533.91;5044076;27;119530;-76
2022/07/19 04:32:02;;;;;;;4.75;2.40;;;16.00;99.90;;;17.24;95.88;99538.72;5026600;27;129453;-73
2022/07/19 04:34:30;;;;;;;3.80;2.28;;;15.90;99.90;;;17.01;97.96;99535.81;5026286;27;129359;-74
2022/07/19 04:36:59;;;;;;;5.03;2.40;;;15.80;99.90;;;17.07;98.77;99537.16;5025475;27;121743;-73
2022/07/19 04:39:27;;;;;;;4.97;2.50;;;15.90;99.90;;;17.07;97.49;99539.88;5041518;27;122375;-73
2022/07/19 04:41:56;;;;;;;4.30;2.08;;;15.70;99.90;;;17.17;96.91;99533.88;5041194;27;130640;-76
2022/07/19 04:44:26;;;;;;;4.05;2.15;;;15.90;99.90;;;17.29;95.67;99551.38;5026091;27;128950;-74
2022/07/19 04:46:54;;;;;;;5.07;2.67;;;16.00;99.90;;;17.05;96.67;99548.47;5041693;27;119694;-75
2022/07/19 04:49:23;;;;;;;4.18;2.45;;;15.90;99.90;;;16.92;95.70;99546.16;5041281;27;119409;-75
2022/07/19 04:51:52;;;;;;;4.95;2.30;;;15.90;99.90;;;17.01;96.41;99549.53;5040976;27;130083;-75
2022/07/19 04:54:20;;;;;;;4.00;2.50;;;16.00;99.90;;;16.68;97.32;99542.41;5042284;27;129893;-76
2022/07/19 04:56:49;;;;;;;5.38;2.55;;;15.80;99.90;;;16.61;97.64;99540.28;5043226;27;119640;-77
2022/07/19 04:59:18;;;;;;;5.60;2.83;;;15.80;99.90;;;16.99;97.01;99535.38;5042727;27;119469;-76
2022/07/19 05:01:48;;;;;;;7.38;2.58;;;15.90;99.90;;;17.46;94.89;99545.50;5024856;27;129762;-75
2022/07/19 05:04:16;;;;;;;5.18;2.30;;;16.30;99.90;;;17.19;94.03;99537.06;5040899;27;130037;-75
2022/07/19 05:06:45;;;;;;;5.13;2.15;;;16.00;99.90;;;17.28;92.24;99544.28;5041146;27;119784;-75
2022/07/19 05:09:13;;;;;;;7.32;2.83;;;16.10;99.90;;;16.92;93.74;99548.91;5041219;27;119827;-76
2022/07/19 05:11:42;;;;;;;6.25;2.35;;;15.90;99.90;;;17.07;93.99;99553.59;5040634;27;130285;-73
2022/07/19 05:14:10;;;;;;;5.78;2.50;;;16.10;99.90;;;17.05;92.24;99556.69;5040630;27;129497;-75
2022/07/19 05:16:39;;;;;;;3.50;2.40;;;16.00;99.90;;;16.68;94.99;99561.56;5043226;27;118400;-76
2022/07/19 05:19:09;;;;;;;6.57;2.40;;;15.90;99.90;;;16.75;96.49;99559.03;5041054;27;119517;-75
2022/07/19 05:21:37;;;;;;;5.93;2.47;;;16.00;99.90;;;17.13;94.36;99565.88;5040065;27;130024;-75
2022/07/19 05:24:06;;;;;;;4.05;2.38;;;16.00;99.90;;;17.38;91.47;99560.22;5040344;27;129948;-71
2022/07/19 05:26:35;;;;;;;7.78;2.42;;;16.00;99.90;;;17.45;91.26;99565.84;5039487;27;121835;-72
2022/07/19 05:29:04;;;;;;;6.85;2.78;;;15.80;99.90;;;17.64;89.76;99573.38;5040634;27;121921;-75
2022/07/19 05:31:33;;;;;;;5.43;2.67;;;16.00;99.90;;;17.61;87.59;99574.88;5040182;27;129509;-72
2022/07/19 05:34:01;;;;;;;5.18;2.45;;;16.00;99.90;;;17.95;86.63;99567.03;5025530;27;128736;-71
2022/07/19 05:36:32;;;;;;;4.45;2.15;;;16.40;99.90;;;18.65;82.01;99576.28;5040831;27;119435;-72
2022/07/19 05:39:00;;;;;;;4.50;2.25;;;16.60;99.90;;;18.67;80.69;99579.44;5042751;27;119058;-73
2022/07/19 05:41:29;;;;;;;5.97;2.40;;;17.00;99.90;;;18.26;82.67;99576.31;5024951;27;129455;-76
2022/07/19 05:43:57;;;;;;;4.35;2.40;;;16.90;99.90;;;18.34;83.37;99582.75;5026084;27;129575;-75
2022/07/19 05:46:26;;;;;;;5.03;2.47;;;16.90;99.90;;;18.60;82.08;99582.03;5042410;27;118388;-75
2022/07/19 05:48:54;;;;;;;6.25;2.20;;;17.10;99.90;;;18.91;80.84;99583.03;5025827;27;118568;-74
2022/07/19 05:51:23;;;;;;;6.82;2.20;;;17.20;99.90;;;19.52;78.55;99575.00;5039165;27;129832;-75
2022/07/19 05:53:53;;;;;;;4.57;2.10;;;17.60;99.90;;;18.66;80.62;99580.59;5040517;27;129724;-76
2022/07/19 05:56:21;;;;;;;5.15;2.20;;;17.00;99.90;;;18.22;83.59;99575.41;5039144;27;119394;-74
2022/07/19 05:58:50;;;;;;;4.32;2.10;;;16.70;99.90;;;18.02;86.45;99571.06;5025304;27;119397;-74
2022/07/19 06:01:19;;;;;;;6.20;2.50;;;16.70;99.90;;;18.46;83.25;99579.81;5039829;27;129879;-73
2022/07/19 06:03:48;;;;;;;6.97;2.10;;;16.60;99.90;;;18.74;82.41;99580.72;5040379;27;129482;-74
2022/07/19 06:06:17;;;;;;;4.05;2.10;;;16.80;99.90;;;19.02;80.44;99584.00;5040392;27;119425;-75
2022/07/19 06:08:46;;;;;;;5.55;2.25;;;17.00;99.90;;;19.17;79.96;99584.28;5040791;27;119216;-72
2022/07/19 06:11:17;;;;;;;4.55;1.95;;;17.30;99.90;;;19.24;79.47;99578.88;5039637;27;130686;-73
2022/07/19 06:13:47;;;;;;;4.47;2.10;;;17.40;99.90;;;19.45;76.09;99588.66;5039801;27;129460;-72
2022/07/19 06:16:16;;;;;;;3.22;1.80;;;17.50;99.90;;;18.74;78.81;99588.97;5038887;27;121983;-71
2022/07/19 06:18:45;;;;;;;6.13;2.10;;;17.00;99.90;;;18.97;77.62;99587.06;5039812;27;122123;-73
2022/07/19 06:21:20;;;;;;;4.93;2.10;;;17.30;99.90;;;19.38;76.05;99583.81;5039626;27;129787;-73
2022/07/19 06:23:49;;;;;;;4.77;1.93;;;17.70;99.90;;;19.93;73.38;99592.53;5034361;27;129764;-71
2022/07/19 06:26:19;;;;;;;4.53;1.98;;;18.10;99.90;;;20.06;73.04;99586.81;5019158;28;121042;-72
2022/07/19 06:28:47;;;;;;;2.97;1.70;;;18.10;99.90;;;20.46;71.41;99580.59;5022457;28;121370;-72
2022/07/19 06:31:17;;;;;;;7.97;2.83;;;18.30;99.90;;;20.61;71.26;99586.25;5005466;28;129997;-73
2022/07/19 06:33:49;;;;;;;12.75;3.47;;;17.70;99.90;;;20.31;72.08;99583.56;5009354;28;129440;-74
2022/07/19 06:36:18;;;;;;;5.57;2.15;;;17.40;99.90;;;20.53;71.22;99579.88;5011215;28;120563;-73
2022/07/19 06:38:49;;;;;;;10.43;2.50;;;17.80;99.90;;;20.65;71.39;99589.91;5019160;28;119109;-74
2022/07/19 06:41:19;;;;;;;8.02;2.53;;;18.10;99.90;;;20.71;70.05;99596.66;5017698;28;130634;-73
2022/07/19 06:43:47;;;;;;;4.88;2.10;;;17.90;99.90;;;20.71;68.28;99606.88;5021555;28;129944;-73
2022/07/19 06:46:16;;;;;;;3.20;1.58;;;18.10;99.90;;;20.92;66.56;99595.28;5023471;28;119503;-76
2022/07/19 06:48:45;;;;;;;4.53;1.70;;;18.00;99.90;;;21.08;65.89;99603.31;5007521;28;118969;-74
2022/07/19 06:51:14;;;;;;;4.07;1.40;;;18.30;99.90;;;19.96;65.88;99596.50;5022295;28;129930;-75
2022/07/19 06:53:42;;;;;;;2.67;1.30;;;17.90;99.90;;;19.36;68.08;99592.44;5021908;28;129878;-74
2022/07/19 06:56:11;;;;;;;4.05;1.70;;;17.80;99.90;;;19.74;68.76;99589.84;5022869;28;119874;-74
2022/07/19 06:58:41;;;;;;;3.75;1.70;;;18.30;99.90;;;20.61;65.14;99602.81;5025825;28;119352;-73
2022/07/19 07:01:10;;;;;;;22.15;4.15;;;18.30;99.90;;;20.86;67.33;99602.31;5022109;28;129881;-76
2022/07/19 07:03:39;;;;;;;6.88;2.50;;;18.10;99.90;;;20.35;69.39;99604.50;5021358;28;129677;-73
2022/07/19 07:06:07;;;;;;;5.68;2.63;;;17.70;99.90;;;20.24;69.17;99600.78;5021800;28;122028;-74
2022/07/19 07:08:36;;;;;;;6.60;2.55;;;17.50;99.90;;;20.37;68.23;99591.13;5021765;28;121613;-71
2022/07/19 07:11:05;;;;;;;3.75;1.85;;;17.80;99.90;;;20.39;69.62;99586.03;5022541;28;129896;-73
2022/07/19 07:13:34;;;;;;;4.68;1.90;;;17.70;99.90;;;20.18;70.81;99599.53;5022285;28;129895;-72
2022/07/19 07:16:05;;;;;;;7.78;2.78;;;17.60;99.90;;;20.28;69.76;99587.84;5020489;28;120046;-73
2022/07/19 07:18:33;;;;;;;6.53;2.03;;;17.80;99.90;;;20.32;68.70;99596.97;5022847;28;119363;-73
2022/07/19 07:21:02;;;;;;;5.07;2.00;;;17.90;99.90;;;20.58;69.48;99592.53;5022348;28;130101;-74
2022/07/19 07:23:31;;;;;;;5.30;2.13;;;18.40;99.90;;;20.87;67.14;99590.91;5022114;28;129560;-74
2022/07/19 07:25:59;;;;;;;3.10;1.80;;;18.50;99.90;;;21.08;67.81;99592.28;5022473;28;119804;-75
2022/07/19 07:28:29;;;;;;;6.20;2.13;;;18.90;99.90;;;21.48;64.53;99596.16;5004314;28;119278;-72
2022/07/19 07:30:58;;;;;;;3.88;1.73;;;18.80;99.90;;;21.23;63.45;99607.00;5021075;28;130016;-74
2022/07/19 07:33:28;;;;;;;10.57;2.55;;;18.10;99.90;;;20.79;65.18;99598.31;5007215;28;129415;-71
2022/07/19 07:35:57;;;;;;;6.03;2.25;;;18.10;99.90;;;20.48;66.38;99600.31;5007805;28;118960;-71
2022/07/19 07:38:25;;;;;;;10.60;2.65;;;18.10;99.90;;;20.34;66.44;99594.63;5007737;28;117837;-70
2022/07/19 07:40:54;;;;;;;14.77;2.35;;;18.00;99.90;;;20.62;66.95;99593.38;5022101;28;130355;-71
2022/07/19 07:43:23;;;;;;;4.97;1.92;;;18.20;99.90;;;20.93;64.95;99602.41;5006912;28;128845;-70
2022/07/19 07:45:51;;;;;;;4.88;1.83;;;18.40;99.90;;;20.91;64.38;99601.97;5006667;28;119229;-70
2022/07/19 07:48:19;;;;;;;6.78;2.40;;;18.40;99.90;;;21.31;62.77;99600.34;5023030;28;119584;-74
2022/07/19 07:50:49;;;;;;;3.58;1.38;;;18.60;99.90;;;21.56;60.49;99602.56;5006804;28;130666;-74
2022/07/19 07:53:18;;;;;;;4.30;1.60;;;18.90;99.90;;;21.72;59.15;99603.03;5021506;27;129200;-73
2022/07/19 07:55:47;;;;;;;2.80;1.63;;;19.00;99.90;;;21.97;57.86;99607.94;5005282;28;121072;-74
2022/07/19 07:58:15;;;;;;;3.70;1.58;;;19.10;99.90;;;22.21;58.27;99601.75;5023946;28;121885;-75
2022/07/19 08:00:44;;;;;;;3.08;1.30;;;19.20;99.90;;;22.01;59.17;99603.22;5021026;28;131014;-75
2022/07/19 08:03:12;;;;;;;4.03;1.60;;;19.60;99.90;;;22.44;59.72;99595.16;5024032;28;129270;-73
2022/07/19 08:05:41;;;;;;;5.03;1.88;;;20.10;99.90;;;22.37;57.62;99598.69;5019571;28;119965;-75
2022/07/19 08:08:11;;;;;;;4.38;1.75;;;19.20;99.90;;;21.67;60.88;99600.66;4990029;28;119243;-71
2022/07/19 08:10:41;;;;;;;5.55;1.90;;;19.10;99.90;;;22.06;59.30;99595.38;5021087;28;130369;-72
2022/07/19 08:13:10;;;;;;;10.43;2.15;;;19.50;99.90;;;22.38;59.86;99599.50;5021651;28;130638;-72
2022/07/19 08:15:39;;;;;;;6.32;1.45;;;19.50;99.90;;;22.53;57.63;99606.66;5003865;28;119714;-76
2022/07/19 08:18:07;;;;;;;5.13;1.50;;;19.80;96.90;;;22.87;55.54;99598.03;5021947;28;119254;-71
2022/07/19 08:20:36;;;;;;;3.38;1.58;;;19.80;93.90;;;22.84;56.36;99598.81;5020350;28;130021;-73
2022/07/19 08:23:04;;;;;;;3.28;1.33;;;19.90;94.00;;;22.69;55.29;99599.97;5021645;28;129576;-75
2022/07/19 08:25:35;;;;;;;1.98;1.20;;;19.30;96.90;;;22.52;55.98;99588.47;5006536;28;118722;-75
2022/07/19 08:28:04;;;;;;;2.28;1.30;;;19.40;97.40;;;22.72;56.40;99594.47;5025137;28;118079;-74
2022/07/19 08:30:33;;;;;;;4.50;1.63;;;19.80;93.90;;;23.06;56.13;99587.78;5022685;28;129720;-74
2022/07/19 08:33:06;;;;;;;3.00;1.40;;;20.30;94.10;;;22.97;55.14;99585.41;5005916;28;128770;-75
2022/07/19 08:35:35;;;;;;;9.35;1.50;;;19.90;93.90;;;22.93;55.61;99590.16;5021552;28;119934;-73
2022/07/19 08:38:04;;;;;;;5.25;1.55;;;19.90;93.90;;;22.50;57.18;99582.56;5021790;28;119113;-77
2022/07/19 08:40:39;;;;;;;2.58;1.40;;;19.90;93.90;;;21.43;58.48;99586.25;5021424;28;130149;-77
2022/07/19 08:43:08;;;;;;;4.75;1.60;;;19.80;85.60;;;20.89;61.51;99579.50;5006422;28;129057;-76
2022/07/19 08:45:39;;;;;;;3.42;1.30;;;19.50;93.70;;;20.85;60.59;99581.41;5020225;28;121969;-76
2022/07/19 08:48:08;;;;;;;4.53;1.60;;;19.60;88.00;;;21.49;59.79;99578.47;5020764;28;122297;-73
2022/07/19 08:50:38;;;;;;;3.95;1.50;;;19.40;93.70;;;21.88;57.92;99577.91;5019881;28;130353;-74
2022/07/19 08:53:07;;;;;;;2.63;1.38;;;19.30;93.70;;;22.04;57.77;99581.13;5002722;28;130005;-75
2022/07/19 08:55:37;;;;;;;4.22;1.55;;;19.70;93.80;;;22.29;59.29;99579.69;5022888;28;119439;-74
2022/07/19 08:58:06;;;;;;;3.30;1.42;;;19.90;94.10;;;22.58;55.53;99577.84;5022855;28;119303;-74
2022/07/19 09:00:36;;;;;;;3.83;1.48;;;19.50;92.10;;;22.58;56.58;99580.59;5020440;28;129861;-74
2022/07/19 09:03:07;;;;;;;4.53;1.40;;;19.60;93.90;;;22.73;56.37;99582.19;5006272;28;129370;-72
2022/07/19 09:05:36;;;;;;;1.80;1.30;;;19.80;93.90;;;23.00;55.14;99578.28;5020394;27;119707;-74
2022/07/19 09:08:11;;;;;;;3.08;1.30;;;20.20;88.30;;;23.14;55.73;99579.13;5005932;28;118327;-76
2022/07/19 09:11:13;;;;;;;2.67;1.30;;;20.60;84.80;;;23.20;55.71;99587.03;4987702;28;129086;-75
2022/07/19 09:13:35;;;;;;;5.70;1.63;;;20.20;94.10;;;23.35;54.11;99582.28;5023377;28;129418;-76
2022/07/19 09:16:05;;;;;;;2.83;1.20;;;20.00;91.00;;;23.45;53.61;99573.16;4988804;28;118718;-76
2022/07/19 09:18:35;;;;;;;4.70;1.85;;;20.00;91.70;;;23.09;55.55;99575.94;5023074;28;120165;-76
2022/07/19 09:21:07;;;;;;;3.78;1.50;;;20.80;76.30;;;23.46;54.59;99570.00;5005708;28;129876;-74
2022/07/19 09:23:35;;;;;;;3.33;1.30;;;21.40;64.00;;;23.87;51.89;99568.75;5019781;28;130195;-73
2022/07/19 09:26:06;;;;;;;2.20;1.23;;;20.60;63.00;;;23.72;52.09;99570.75;5005828;28;119042;-74
2022/07/19 09:28:37;;;;;;;3.42;1.30;;;20.20;76.10;;;24.00;51.76;99578.25;5020959;28;119282;-73
2022/07/19 09:31:07;;;;;;;3.65;1.20;;;20.80;65.00;;;23.96;51.05;99563.59;5020530;28;129777;-74
2022/07/19 09:33:36;;;;;;;3.00;1.38;;;20.70;56.60;;;24.19;50.41;99567.88;5020055;28;129708;-74
2022/07/19 09:36:14;;;;;;;5.50;1.67;;;21.20;48.80;;;24.72;48.87;99566.81;5000876;28;122900;-73
2022/07/19 09:38:43;;;;;;;3.17;1.27;;;21.60;34.30;;;24.87;50.82;99561.97;5022113;28;120679;-74
2022/07/19 09:41:15;;;;;;;3.05;1.40;;;21.90;50.70;;;24.86;49.47;99562.38;5019871;28;130107;-73
2022/07/19 09:43:55;;;;;;;3.58;1.40;;;21.50;43.40;;;25.50;47.17;99560.31;5022324;28;129288;-78
2022/07/19 09:46:33;;;;;;;1.63;1.10;;;22.00;28.20;;;25.30;47.08;99566.41;5020645;28;119344;-75
2022/07/19 09:49:10;;;;;;;3.45;1.30;;;21.90;28.40;;;25.15;48.05;99559.38;5020227;28;119300;-76
2022/07/19 09:51:41;;;;;;;4.28;1.10;;;21.30;38.90;;;25.71;46.85;99570.41;5020074;28;130792;-77
2022/07/19 09:54:12;;;;;;;5.32;1.27;;;21.80;37.20;;;26.10;45.20;99564.44;5020174;28;129422;-73
2022/07/19 09:56:44;;;;;;;3.08;1.17;;;22.10;21.40;;;25.87;45.45;99569.81;5002032;28;119775;-73
2022/07/19 09:59:13;;;;;;;1.98;1.10;;;21.80;23.00;;;25.51;46.29;99561.84;4988069;28;118101;-74
2022/07/19 10:01:43;;;;;;;5.30;1.23;;;20.90;38.10;;;24.34;49.30;99555.53;4987078;28;128932;-75
2022/07/19 10:04:14;;;;;;;2.25;0.95;;;21.30;38.40;;;24.33;50.84;99561.47;5018266;28;129608;-73
2022/07/19 10:06:44;;;;;;;4.68;1.20;;;21.60;38.70;;;23.56;52.38;99560.13;5022065;28;120035;-74
2022/07/19 10:09:15;;;;;;;2.95;1.27;;;21.20;38.30;;;22.99;54.26;99560.91;4989237;28;118227;-77
2022/07/19 10:11:46;;;;;;;4.90;1.20;;;21.10;47.80;;;22.80;57.34;99554.56;5020572;28;130217;-73
2022/07/19 10:14:15;;;;;;;8.32;1.80;;;21.30;57.40;;;23.53;53.85;99552.59;5005677;28;128579;-74
2022/07/19 10:17:05;;;;;;;12.10;2.20;;;21.50;43.90;;;23.43;51.85;99556.94;5019382;28;120089;-74
2022/07/19 10:19:42;;;;;;;20.08;2.45;;;21.00;40.60;;;24.03;51.54;99560.81;5020345;28;119455;-75